Time;durP1;ratioP1;P1;durP2;ratioP2;P2;SDS_P1;SDS_P2;PMS_P1;PMS_P2;Temp;Humidity;BMP_temperature;BMP_pressure;BME280_temperature;BME280_humidity;BME280_pressure;Samples;Min_cycle;Max_cycle;Signal;HPM_P1;HPM_P2
2021/06/06 00:01:12;;;;;;;59.78;33.35;;;;;;;15.29;55.73;102068.91;5012491;28;20131;-67
2021/06/06 00:03:42;;;;;;;;;;;;;;;15.26;55.63;102070.78;5011341;28;20479;-67
2021/06/06 00:06:21;;;;;;;59.20;34.85;;;;;;;15.02;56.27;102076.13;4998871;28;19917;-67
2021/06/06 00:08:50;;;;;;;68.07;36.80;;;;;;;15.20;56.01;102073.69;5013275;28;20486;-67
2021/06/06 00:11:19;;;;;;;65.35;36.10;;;;;;;14.92;56.67;102080.03;5013692;28;20042;-66
2021/06/06 00:13:46;;;;;;;66.40;35.65;;;;;;;15.04;56.36;102082.19;5026898;28;20034;-66
2021/06/06 00:16:20;;;;;;;65.40;34.25;;;;;;;14.80;57.15;102081.38;5010729;28;20033;-66
2021/06/06 00:18:46;;;;;;;67.90;34.28;;;;;;;15.03;56.64;102077.81;5010514;28;20465;-66
2021/06/06 00:21:13;;;;;;;78.85;35.40;;;;;;;14.95;56.76;102082.56;5012881;28;20025;-65
2021/06/06 00:23:39;;;;;;;68.47;34.90;;;;;;;14.97;56.94;102078.09;5009812;28;20390;-66
2021/06/06 00:26:07;;;;;;;64.43;33.40;;;;;;;15.05;56.46;102083.88;5015121;28;20046;-66
2021/06/06 00:28:33;;;;;;;68.90;34.63;;;;;;;15.20;56.47;102095.59;5010368;28;20508;-65
2021/06/06 00:31:00;;;;;;;72.35;34.35;;;;;;;15.11;56.44;102091.53;5011556;28;20041;-66
2021/06/06 00:33:26;;;;;;;59.22;31.88;;;;;;;14.91;56.81;102094.13;4980692;28;20025;-65
2021/06/06 00:35:52;;;;;;;64.53;32.60;;;;;;;15.06;56.62;102088.25;5013662;28;20494;-68
2021/06/06 00:38:18;;;;;;;70.75;32.53;;;;;;;14.68;57.62;102093.22;5025633;28;20033;-67
2021/06/06 00:40:44;;;;;;;72.40;34.45;;;;;;;14.60;57.82;102100.56;5009586;28;20167;-67
2021/06/06 00:43:12;;;;;;;67.40;32.22;;;;;;;14.88;57.71;102091.59;5026046;28;20490;-68
2021/06/06 00:45:42;;;;;;;68.73;32.67;;;;;;;14.55;58.31;102094.63;5010806;28;20084;-67
2021/06/06 00:48:09;;;;;;;69.78;31.95;;;;;;;14.68;57.93;102087.09;5009673;28;20044;-68
2021/06/06 00:50:45;;;;;;;68.03;29.15;;;;;;;14.50;58.43;102088.63;5014019;28;20099;-67
2021/06/06 00:53:28;;;;;;;62.92;29.27;;;;;;;14.62;58.08;102085.56;4995847;28;20483;-66
2021/06/06 00:55:54;;;;;;;60.10;27.65;;;;;;;14.82;57.83;102097.09;5010964;28;20037;-67
2021/06/06 00:58:22;;;;;;;61.60;29.80;;;;;;;14.86;57.39;102096.94;5009334;28;20133;-67
2021/06/06 01:00:50;;;;;;;62.42;26.75;;;;;;;15.02;57.44;102091.91;5010798;28;20461;-68
2021/06/06 01:03:17;;;;;;;59.03;27.40;;;;;;;15.02;57.21;102096.34;4995251;28;20039;-68
2021/06/06 01:06:11;;;;;;;57.42;27.77;;;;;;;15.11;57.11;102088.06;5013601;28;20042;-67
2021/06/06 01:08:41;;;;;;;58.33;25.52;;;;;;;15.18;56.95;102082.47;4977765;28;20513;-67
2021/06/06 01:11:21;;;;;;;63.10;26.85;;;;;;;15.25;57.07;102088.38;5009645;28;20034;-67
2021/06/06 01:13:55;;;;;;;59.40;25.30;;;;;;;15.24;56.98;102085.81;5010838;28;20029;-67
2021/06/06 01:16:28;;;;;;;46.30;24.45;;;;;;;15.18;56.90;102081.63;5010369;28;20022;-67
2021/06/06 01:19:01;;;;;;;47.53;23.50;;;;;;;15.28;57.04;102082.13;5009453;28;20478;-66
2021/06/06 01:22:17;;;;;;;39.72;20.77;;;;;;;15.21;57.05;102080.66;5013656;28;20262;-69
2021/06/06 01:24:50;;;;;;;43.10;20.88;;;;;;;15.20;57.14;102081.56;4965002;28;20430;-71
2021/06/06 01:27:19;;;;;;;37.45;19.63;;;;;;;15.13;57.10;102068.66;5008730;28;20041;-70
2021/06/06 01:30:07;;;;;;;33.30;19.67;;;;;;;15.13;57.25;102076.53;5011535;28;20038;-68
2021/06/06 01:32:41;;;;;;;30.58;16.98;;;;;;;15.14;57.06;102070.34;5009572;28;20032;-68
2021/06/06 01:35:15;;;;;;;33.75;18.35;;;;;;;15.10;57.15;102076.69;4995731;28;20453;-68
2021/06/06 01:37:55;;;;;;;22.48;14.32;;;;;;;15.06;57.40;102082.09;5009543;28;20060;-68
2021/06/06 01:40:25;;;;;;;21.00;14.40;;;;;;;14.82;57.67;102079.53;5024967;28;20058;-68
2021/06/06 01:43:00;;;;;;;21.67;13.45;;;;;;;15.00;57.50;102077.09;5008554;28;20052;-68
2021/06/06 01:45:34;;;;;;;19.38;12.85;;;;;;;14.99;57.23;102078.84;5013147;28;20096;-69
2021/06/06 01:48:07;;;;;;;18.90;11.95;;;;;;;15.10;57.26;102079.31;4997726;28;20029;-69
2021/06/06 01:50:45;;;;;;;20.75;12.23;;;;;;;15.13;57.23;102089.72;5008379;28;20091;-70
2021/06/06 01:53:14;;;;;;;18.80;10.85;;;;;;;14.84;57.33;102085.59;5012823;28;20416;-69
2021/06/06 01:55:51;;;;;;;20.17;11.25;;;;;;;14.68;57.83;102098.50;5008726;28;20465;-69
2021/06/06 01:58:18;;;;;;;17.52;11.80;;;;;;;14.69;57.40;102100.19;5009017;28;20398;-68
2021/06/06 02:01:06;;;;;;;15.85;11.02;;;;;;;14.61;57.41;102097.00;5010845;28;20037;-68
2021/06/06 02:03:34;;;;;;;14.38;10.25;;;;;;;14.71;57.49;102082.56;5012217;28;20509;-67
2021/06/06 02:06:09;;;;;;;15.07;10.38;;;;;;;14.19;58.22;102088.88;5009057;28;20109;-67
2021/06/06 02:08:37;;;;;;;14.10;9.32;;;;;;;14.51;57.49;102088.59;4977657;28;20084;-68
2021/06/06 02:11:17;;;;;;;14.70;9.57;;;;;;;14.54;57.32;102095.50;5010976;28;20037;-68
2021/06/06 02:13:51;;;;;;;17.67;10.15;;;;;;;14.42;57.65;102085.47;5011606;28;20056;-69
2021/06/06 02:16:25;;;;;;;18.00;10.25;;;;;;;14.09;57.91;102093.63;5025298;28;20030;-69
2021/06/06 02:18:54;;;;;;;12.40;9.27;;;;;;;14.12;58.07;102088.25;5008432;28;20363;-66
2021/06/06 02:21:24;;;;;;;14.68;9.82;;;;;;;14.15;57.98;102090.78;5008482;28;20026;-67
2021/06/06 02:23:50;;;;;;;13.15;9.38;;;;;;;14.10;57.64;102093.56;5008341;28;20026;-68
2021/06/06 02:26:19;;;;;;;14.32;9.00;;;;;;;14.21;57.31;102092.31;5007218;28;20521;-66
2021/06/06 02:29:08;;;;;;;12.30;8.32;;;;;;;13.98;57.23;102085.25;5024839;28;20046;-68
2021/06/06 02:31:43;;;;;;;12.65;8.43;;;;;;;13.85;57.65;102090.97;5008735;28;20406;-68
2021/06/06 02:34:31;;;;;;;13.98;8.07;;;;;;;13.74;57.99;102087.81;5003086;28;20030;-67
2021/06/06 02:37:04;;;;;;;14.73;8.60;;;;;;;13.83;57.97;102084.00;5012888;28;20143;-67
2021/06/06 02:39:37;;;;;;;13.85;9.13;;;;;;;13.92;58.06;102087.19;5012798;28;20088;-66
2021/06/06 02:42:23;;;;;;;17.23;9.40;;;;;;;13.97;57.57;102084.41;5009851;28;20325;-66
2021/06/06 02:44:55;;;;;;;14.30;9.63;;;;;;;13.88;57.35;102085.56;5008883;28;20041;-68
2021/06/06 02:47:36;;;;;;;19.38;10.65;;;;;;;13.86;57.63;102086.53;4991712;28;20053;-68
2021/06/06 02:50:21;;;;;;;13.90;9.45;;;;;;;13.91;57.48;102082.84;5007958;28;20030;-68
2021/06/06 02:53:01;;;;;;;22.17;11.50;;;;;;;13.75;57.54;102084.28;5022227;28;20026;-69
2021/06/06 02:55:39;;;;;;;18.27;11.15;;;;;;;13.81;57.34;102078.81;5009003;28;20582;-69
2021/06/06 02:58:15;;;;;;;21.80;11.82;;;;;;;14.04;57.06;102079.78;5009870;28;20033;-70
2021/06/06 03:00:51;;;;;;;19.00;10.80;;;;;;;14.11;56.79;102081.28;5009561;28;20030;-69
2021/06/06 03:03:24;;;;;;;20.65;12.65;;;;;;;14.11;57.10;102076.03;5009495;28;20088;-70
2021/06/06 03:05:55;;;;;;;22.00;13.27;;;;;;;14.15;56.71;102067.13;5008465;28;20084;-69
2021/06/06 03:08:26;;;;;;;20.80;11.85;;;;;;;14.12;57.13;102073.34;5005243;28;20036;-69
2021/06/06 03:10:55;;;;;;;27.10;13.90;;;;;;;14.06;56.95;102065.66;5010907;28;20072;-69
2021/06/06 03:13:37;;;;;;;26.48;13.85;;;;;;;14.05;56.77;102066.56;4992018;28;20109;-68
2021/06/06 03:16:03;;;;;;;26.60;14.27;;;;;;;13.97;57.10;102063.38;5006543;28;20040;-70
2021/06/06 03:18:40;;;;;;;26.05;14.85;;;;;;;13.77;57.48;102064.06;5023884;28;20199;-69
2021/06/06 03:21:23;;;;;;;27.73;15.75;;;;;;;13.75;57.60;102068.53;5007683;28;20033;-68
2021/06/06 03:24:04;;;;;;;30.35;16.25;;;;;;;13.63;57.96;102074.19;5008303;28;20120;-69
2021/06/06 03:26:36;;;;;;;30.80;16.63;;;;;;;13.58;57.95;102069.09;4992005;28;20604;-68
2021/06/06 03:29:09;;;;;;;32.65;15.80;;;;;;;13.69;57.54;102066.09;5010110;28;20328;-69
2021/06/06 03:31:42;;;;;;;32.58;16.70;;;;;;;13.60;57.76;102066.41;5009908;28;20072;-69
2021/06/06 03:34:09;;;;;;;29.73;16.70;;;;;;;13.66;57.74;102063.59;5008495;28;20028;-68
2021/06/06 03:36:46;;;;;;;33.65;16.65;;;;;;;13.71;57.45;102066.91;5006407;28;20044;-68
2021/06/06 03:39:27;;;;;;;32.40;16.27;;;;;;;13.27;58.92;102074.44;5008471;28;20143;-68
2021/06/06 03:41:57;;;;;;;31.42;16.65;;;;;;;13.44;57.80;102079.16;4992400;28;20041;-69
2021/06/06 03:44:25;;;;;;;36.85;18.83;;;;;;;13.62;57.97;102077.72;5021838;28;20379;-68
2021/06/06 03:46:53;;;;;;;40.08;18.00;;;;;;;13.64;57.79;102087.28;5007095;28;20033;-68
2021/06/06 03:49:19;;;;;;;38.08;18.55;;;;;;;13.66;57.63;102088.09;4980630;28;20064;-69
2021/06/06 03:51:46;;;;;;;33.70;17.63;;;;;;;13.75;57.19;102084.28;5008945;28;20485;-69
2021/06/06 03:54:16;;;;;;;34.67;17.88;;;;;;;13.64;57.66;102087.28;4994145;28;20034;-68
2021/06/06 03:56:44;;;;;;;39.50;18.23;;;;;;;13.68;57.51;102091.50;5006050;28;20408;-70
2021/06/06 03:59:13;;;;;;;35.60;18.83;;;;;;;13.47;57.79;102085.19;5010371;28;20395;-66
2021/06/06 04:01:41;;;;;;;41.58;18.48;;;;;;;13.63;57.53;102085.56;5009571;28;20026;-68
2021/06/06 04:04:07;;;;;;;41.88;20.52;;;;;;;13.74;56.90;102079.91;5005121;28;20022;-68
2021/06/06 04:06:34;;;;;;;44.88;20.80;;;;;;;13.24;58.66;102083.28;5007037;28;20457;-69
2021/06/06 04:09:02;;;;;;;42.88;19.67;;;;;;;13.61;57.47;102086.53;5004954;28;20117;-68
2021/06/06 04:11:28;;;;;;;44.33;21.23;;;;;;;13.53;57.47;102095.47;5010170;28;20474;-67
2021/06/06 04:14:08;;;;;;;43.25;20.17;;;;;;;13.49;57.85;102091.22;5006081;28;20030;-68
2021/06/06 04:16:37;;;;;;;43.13;20.35;;;;;;;13.60;57.23;102084.81;5007789;28;20266;-68
2021/06/06 04:19:04;;;;;;;46.25;22.15;;;;;;;13.51;57.91;102099.91;5006865;28;20034;-70
2021/06/06 04:21:34;;;;;;;42.65;20.20;;;;;;;13.29;58.54;102097.16;4990697;28;20129;-70
2021/06/06 04:24:01;;;;;;;43.92;21.05;;;;;;;13.53;58.08;102105.97;5024059;28;20032;-68
2021/06/06 04:26:28;;;;;;;51.88;20.90;;;;;;;13.58;57.69;102097.97;5006631;28;20041;-68
2021/06/06 04:28:57;;;;;;;44.35;20.40;;;;;;;13.73;57.18;102101.88;5009045;28;20253;-69
2021/06/06 04:31:29;;;;;;;;;;;;;;;13.44;57.40;102095.78;5009583;28;20036;-68
2021/06/06 04:33:54;;;;;;;48.67;20.50;;;;;;;13.68;57.45;102098.53;4993322;28;20135;-68
2021/06/06 04:36:21;;;;;;;40.90;19.58;;;;;;;13.56;57.13;102096.28;5006992;28;20022;-68
2021/06/06 04:38:48;;;;;;;47.78;20.40;;;;;;;13.75;56.98;102089.53;5006948;28;20519;-68
2021/06/06 04:41:15;;;;;;;42.20;19.48;;;;;;;13.75;56.99;102094.78;5005664;28;20017;-68
2021/06/06 04:43:42;;;;;;;45.22;20.10;;;;;;;13.71;57.00;102093.19;5010926;28;20022;-68
2021/06/06 04:46:09;;;;;;;39.97;19.75;;;;;;;13.74;56.76;102095.69;5009517;28;20103;-67
2021/06/06 04:48:39;;;;;;;42.72;19.00;;;;;;;13.86;56.24;102097.91;5011828;28;20426;-68
2021/06/06 04:51:10;;;;;;;39.05;19.50;;;;;;;13.78;56.42;102099.09;5014109;28;20044;-67
2021/06/06 04:53:41;;;;;;;47.85;20.40;;;;;;;13.83;56.58;102103.28;5013823;28;20412;-66
2021/06/06 04:56:14;;;;;;;46.20;20.13;;;;;;;13.72;56.88;102108.91;5008082;28;20037;-69
2021/06/06 04:58:40;;;;;;;45.85;19.80;;;;;;;13.81;56.66;102114.72;5009274;28;20083;-68
2021/06/06 05:01:09;;;;;;;49.38;20.80;;;;;;;13.78;56.59;102114.84;5010931;28;20042;-69
2021/06/06 05:03:37;;;;;;;46.33;21.10;;;;;;;13.56;57.03;102114.66;5011234;28;20041;-66
2021/06/06 05:06:04;;;;;;;57.53;24.10;;;;;;;13.21;57.69;102112.28;5008292;28;20037;-67
2021/06/06 05:08:31;;;;;;;50.22;23.15;;;;;;;13.51;57.20;102112.19;5014494;28;20653;-67
2021/06/06 05:10:57;;;;;;;50.35;21.25;;;;;;;13.49;56.98;102112.22;5012088;28;20026;-67
2021/06/06 05:13:24;;;;;;;58.60;22.75;;;;;;;13.32;57.44;102123.31;5011609;28;20079;-67
2021/06/06 05:15:54;;;;;;;51.53;22.52;;;;;;;13.21;57.73;102120.16;5012640;28;20038;-67
2021/06/06 05:18:22;;;;;;;54.13;22.27;;;;;;;13.65;56.68;102114.41;5010942;28;20030;-68
2021/06/06 05:20:51;;;;;;;52.97;23.17;;;;;;;13.62;56.60;102114.50;4998994;28;20038;-69
2021/06/06 05:23:23;;;;;;;58.78;22.85;;;;;;;13.49;56.97;102112.22;5009951;28;20025;-68
2021/06/06 05:25:52;;;;;;;50.08;23.55;;;;;;;13.49;56.78;102116.63;5010297;28;20025;-69
2021/06/06 05:28:22;;;;;;;49.35;22.95;;;;;;;13.37;57.29;102114.41;5010369;28;20045;-70
2021/06/06 05:30:48;;;;;;;59.25;24.35;;;;;;;13.37;57.48;102122.31;5014854;28;20030;-70
2021/06/06 05:33:13;;;;;;;46.72;22.42;;;;;;;13.57;57.06;102122.53;5008976;28;20183;-71
2021/06/06 05:35:40;;;;;;;46.17;22.98;;;;;;;13.63;56.47;102122.34;5010512;28;20041;-70
2021/06/06 05:38:08;;;;;;;48.28;22.05;;;;;;;13.70;56.39;102123.00;5027346;28;20061;-71
2021/06/06 05:40:35;;;;;;;49.70;22.55;;;;;;;13.60;56.36;102127.69;5026792;28;20252;-70
2021/06/06 05:43:02;;;;;;;43.38;21.63;;;;;;;13.58;56.54;102123.38;5008535;28;20060;-70
2021/06/06 05:45:28;;;;;;;47.83;21.17;;;;;;;13.57;56.55;102132.19;5009229;28;20045;-69
2021/06/06 05:47:54;;;;;;;42.97;21.73;;;;;;;13.29;56.85;102135.66;5009133;28;20273;-71
2021/06/06 05:50:24;;;;;;;46.50;21.67;;;;;;;13.26;57.16;102138.38;5009964;28;20040;-70
2021/06/06 05:53:05;;;;;;;38.78;21.80;;;;;;;13.50;56.64;102137.59;5025219;28;20164;-68
2021/06/06 05:55:31;;;;;;;44.90;21.80;;;;;;;13.34;57.02;102141.66;5009955;28;20538;-67
2021/06/06 05:57:56;;;;;;;50.13;21.25;;;;;;;13.48;56.90;102143.81;5011945;28;20049;-68
2021/06/06 06:00:27;;;;;;;42.40;21.13;;;;;;;13.23;57.38;102141.97;5011851;28;20059;-69
2021/06/06 06:02:52;;;;;;;43.75;21.60;;;;;;;13.36;56.88;102147.72;5008423;28;20546;-68
2021/06/06 06:05:19;;;;;;;42.80;21.10;;;;;;;13.31;56.93;102147.81;4996126;28;20045;-67
2021/06/06 06:07:46;;;;;;;45.03;21.58;;;;;;;13.45;56.42;102147.41;5010559;28;20221;-67
2021/06/06 06:10:18;;;;;;;45.50;22.05;;;;;;;13.42;56.78;102139.59;5008377;28;20116;-67
2021/06/06 06:12:45;;;;;;;51.88;21.42;;;;;;;13.19;57.25;102144.75;5008756;28;20052;-67
2021/06/06 06:15:13;;;;;;;45.28;20.05;;;;;;;13.50;56.94;102153.38;5010684;28;20109;-67
2021/06/06 06:17:38;;;;;;;46.70;20.88;;;;;;;13.38;56.59;102148.50;5010794;28;20029;-67
2021/06/06 06:20:07;;;;;;;39.83;18.55;;;;;;;13.21;56.96;102153.44;5010694;28;20038;-67
2021/06/06 06:22:34;;;;;;;39.58;19.95;;;;;;;13.33;57.20;102155.66;5007038;28;20026;-67
2021/06/06 06:25:00;;;;;;;41.17;19.40;;;;;;;13.42;56.73;102152.75;5008092;28;20103;-67
2021/06/06 06:27:25;;;;;;;39.63;19.73;;;;;;;13.42;56.82;102151.88;5007090;28;20041;-68
2021/06/06 06:30:25;;;;;;;36.47;19.00;;;;;;;13.49;56.19;102159.50;5005746;28;20045;-68
2021/06/06 06:32:51;;;;;;;35.55;18.13;;;;;;;13.31;57.02;102152.22;5009460;28;20026;-67
2021/06/06 06:35:17;;;;;;;36.25;17.80;;;;;;;13.64;56.52;102150.31;5008408;28;20040;-67
2021/06/06 06:37:42;;;;;;;35.03;18.33;;;;;;;13.18;57.30;102151.72;5024610;28;20037;-67
2021/06/06 06:40:10;;;;;;;46.92;17.27;;;;;;;13.64;56.57;102149.47;5009781;28;20296;-67
2021/06/06 06:42:36;;;;;;;38.25;17.75;;;;;;;13.71;56.21;102162.34;5023249;28;20041;-66
2021/06/06 06:45:03;;;;;;;42.30;18.35;;;;;;;14.11;55.95;102160.16;5006437;28;20030;-67
2021/06/06 06:47:30;;;;;;;45.97;18.42;;;;;;;13.91;56.10;102155.56;5007640;28;20076;-67
2021/06/06 06:49:56;;;;;;;40.08;15.77;;;;;;;13.26;57.06;102155.00;5010443;28;20088;-67
2021/06/06 06:52:22;;;;;;;32.25;15.45;;;;;;;13.82;56.21;102158.50;5008379;28;20120;-67
2021/06/06 06:54:47;;;;;;;36.28;16.58;;;;;;;14.04;55.48;102150.75;5005906;28;20036;-67
2021/06/06 06:57:13;;;;;;;36.63;17.75;;;;;;;13.95;55.67;102151.94;5010320;28;20033;-67
2021/06/06 06:59:38;;;;;;;39.22;16.90;;;;;;;13.81;55.67;102157.66;5010301;28;20037;-67
2021/06/06 07:02:04;;;;;;;36.53;17.10;;;;;;;14.23;55.09;102158.84;5012747;28;20053;-66
2021/06/06 07:04:31;;;;;;;41.08;18.35;;;;;;;14.51;54.63;102166.66;5006898;28;20076;-66
2021/06/06 07:06:56;;;;;;;35.80;17.98;;;;;;;14.20;54.99;102169.50;5010296;28;20029;-66
2021/06/06 07:09:26;;;;;;;34.45;18.33;;;;;;;14.20;54.61;102170.34;5009495;28;20045;-67
2021/06/06 07:11:55;;;;;;;39.92;17.40;;;;;;;14.25;54.41;102173.66;5013274;28;20030;-67
2021/06/06 07:14:21;;;;;;;35.47;16.38;;;;;;;14.38;54.64;102171.47;5007825;28;20034;-66
2021/06/06 07:16:47;;;;;;;39.30;18.17;;;;;;;14.52;54.33;102171.00;5008779;28;20044;-67
2021/06/06 07:19:12;;;;;;;33.38;17.63;;;;;;;14.90;53.53;102176.63;5009377;28;20048;-66
2021/06/06 07:21:38;;;;;;;25.33;15.77;;;;;;;14.46;54.08;102176.50;5008679;28;20375;-66
2021/06/06 07:24:05;;;;;;;32.80;16.77;;;;;;;14.64;53.53;102167.94;5008748;28;20021;-65
2021/06/06 07:26:34;;;;;;;27.10;15.95;;;;;;;15.09;52.46;102169.75;5010640;28;20034;-66
2021/06/06 07:29:04;;;;;;;32.80;16.80;;;;;;;14.92;52.46;102178.28;5008063;28;20476;-67
2021/06/06 07:31:30;;;;;;;29.27;16.02;;;;;;;15.02;51.68;102178.81;5006093;28;20040;-66
2021/06/06 07:33:55;;;;;;;33.78;14.93;;;;;;;14.65;53.39;102187.19;5004436;28;20194;-66
2021/06/06 07:36:23;;;;;;;30.40;16.08;;;;;;;14.74;53.76;102186.88;5008497;28;20029;-66
2021/06/06 07:38:49;;;;;;;27.35;15.20;;;;;;;14.69;53.28;102191.44;5008253;28;20026;-66
2021/06/06 07:41:16;;;;;;;20.27;14.20;;;;;;;14.18;53.63;102193.19;5011417;28;20052;-67
2021/06/06 07:43:42;;;;;;;32.17;14.77;;;;;;;14.06;54.31;102191.00;5002959;28;20061;-66
2021/06/06 07:46:07;;;;;;;22.58;14.02;;;;;;;14.56;53.65;102183.97;5007653;28;20062;-66
2021/06/06 07:48:34;;;;;;;27.58;15.30;;;;;;;14.52;53.76;102184.16;5009911;28;20577;-67
2021/06/06 07:51:00;;;;;;;28.27;14.27;;;;;;;14.44;53.87;102192.34;5007490;28;20029;-66
2021/06/06 07:53:27;;;;;;;29.13;14.23;;;;;;;14.36;54.20;102192.56;5024824;28;20026;-66
2021/06/06 07:55:57;;;;;;;29.92;13.20;;;;;;;14.36;54.65;102187.28;5007017;28;20034;-66
2021/06/06 07:58:28;;;;;;;25.35;13.90;;;;;;;14.87;53.07;102187.28;5025004;28;20034;-66
2021/06/06 08:00:56;;;;;;;31.15;14.57;;;;;;;14.82;52.70;102189.22;5005420;28;20033;-67
2021/06/06 08:03:24;;;;;;;22.98;13.05;;;;;;;15.05;52.32;102185.72;5007401;28;20018;-66
2021/06/06 08:05:50;;;;;;;28.02;14.50;;;;;;;14.72;52.73;102186.06;5007280;28;20080;-67
2021/06/06 08:08:17;;;;;;;23.08;13.20;;;;;;;14.75;52.61;102194.72;5008370;28;20049;-67
2021/06/06 08:10:46;;;;;;;28.45;13.38;;;;;;;14.32;53.37;102185.72;5006862;28;20465;-67
2021/06/06 08:13:12;;;;;;;25.10;15.25;;;;;;;14.22;53.88;102184.28;5007464;28;20025;-67
2021/06/06 08:15:38;;;;;;;22.92;13.02;;;;;;;14.11;54.30;102182.03;5009679;28;20136;-66
2021/06/06 08:18:07;;;;;;;24.05;12.43;;;;;;;14.33;53.99;102171.63;5009511;28;20037;-67
2021/06/06 08:20:38;;;;;;;25.67;14.13;;;;;;;14.62;53.08;102171.53;5009251;28;20271;-67
2021/06/06 08:23:07;;;;;;;18.75;12.18;;;;;;;15.03;52.54;102177.03;5013022;28;20495;-67
2021/06/06 08:25:33;;;;;;;27.70;13.90;;;;;;;14.51;53.03;102185.06;5010990;28;20064;-67
2021/06/06 08:27:59;;;;;;;24.02;12.25;;;;;;;14.83;52.63;102185.66;5009587;28;20025;-67
2021/06/06 08:30:30;;;;;;;22.63;11.85;;;;;;;14.19;53.43;102194.94;5027414;28;20552;-67
2021/06/06 08:32:57;;;;;;;17.52;12.23;;;;;;;14.29;53.09;102177.91;5012004;28;20033;-67
2021/06/06 08:35:23;;;;;;;23.63;12.40;;;;;;;14.46;53.19;102185.25;5009211;28;20112;-66
2021/06/06 08:37:49;;;;;;;23.02;12.50;;;;;;;14.56;53.27;102181.34;4996321;28;20278;-67
2021/06/06 08:40:45;;;;;;;21.60;12.07;;;;;;;14.74;52.46;102186.88;5009061;28;20025;-68
2021/06/06 08:43:11;;;;;;;21.13;11.15;;;;;;;14.56;52.98;102185.75;5002163;28;20046;-67
2021/06/06 08:45:50;;;;;;;21.67;13.25;;;;;;;14.48;52.50;102185.19;5008126;28;20072;-66
2021/06/06 08:48:18;;;;;;;20.60;11.85;;;;;;;14.57;52.78;102195.38;5009055;28;20071;-67
2021/06/06 08:50:48;;;;;;;23.38;12.02;;;;;;;14.88;52.59;102199.50;5008535;28;20049;-68
2021/06/06 08:53:26;;;;;;;21.02;12.35;;;;;;;15.21;51.82;102201.78;5008615;28;20125;-68
2021/06/06 08:56:20;;;;;;;20.90;12.10;;;;;;;14.91;51.70;102202.91;5010607;28;20041;-67
2021/06/06 08:58:56;;;;;;;20.35;11.63;;;;;;;14.51;52.35;102206.97;4995402;28;20041;-68
2021/06/06 09:01:38;;;;;;;17.75;12.80;;;;;;;14.81;52.13;102208.56;5006308;28;20530;-66
2021/06/06 09:04:10;;;;;;;21.38;12.82;;;;;;;14.54;52.65;102211.25;5023196;28;20041;-67
2021/06/06 09:06:42;;;;;;;18.88;11.63;;;;;;;14.71;52.85;102208.03;5010380;28;21821;-66
2021/06/06 09:09:11;;;;;;;21.30;10.93;;;;;;;14.79;52.54;102210.38;5009667;28;20026;-67
2021/06/06 09:11:38;;;;;;;21.70;11.48;;;;;;;14.87;51.40;102213.59;5009336;28;20042;-67
2021/06/06 09:14:03;;;;;;;16.92;10.75;;;;;;;15.12;51.61;102219.66;5009694;28;20049;-67
2021/06/06 09:16:34;;;;;;;17.27;10.13;;;;;;;14.76;52.00;102206.09;5007899;28;20124;-67
2021/06/06 09:19:09;;;;;;;21.80;12.83;;;;;;;14.72;52.75;102215.00;5011370;28;20049;-67
2021/06/06 09:21:35;;;;;;;25.52;11.60;;;;;;;14.74;52.43;102208.75;5011191;28;20036;-67
2021/06/06 09:24:14;;;;;;;13.70;11.05;;;;;;;14.42;52.96;102211.72;5011441;28;20034;-67
2021/06/06 09:26:41;;;;;;;15.60;11.00;;;;;;;14.48;53.09;102211.50;5009341;28;20065;-67
2021/06/06 09:29:19;;;;;;;26.70;11.52;;;;;;;14.30;53.21;102216.47;5010346;28;20025;-67
2021/06/06 09:31:45;;;;;;;20.65;12.35;;;;;;;14.82;51.63;102215.56;5011647;28;20029;-67
2021/06/06 09:34:20;;;;;;;20.95;11.45;;;;;;;15.17;51.21;102222.13;5010298;28;20398;-67
2021/06/06 09:37:02;;;;;;;25.67;12.65;;;;;;;14.76;52.06;102222.72;5011622;28;20046;-66
2021/06/06 09:39:36;;;;;;;17.08;11.20;;;;;;;14.77;52.25;102220.97;5011601;28;20041;-66
2021/06/06 09:42:19;;;;;;;19.52;11.95;;;;;;;15.47;51.19;102220.09;5008562;28;20041;-67
2021/06/06 09:44:44;;;;;;;21.05;11.40;;;;;;;15.46;50.36;102218.41;5008035;28;20479;-67
2021/06/06 09:47:15;;;;;;;21.35;12.35;;;;;;;15.94;49.14;102219.94;5009896;28;20091;-67
2021/06/06 09:49:44;;;;;;;16.33;10.63;;;;;;;15.50;50.20;102225.25;5008280;28;20044;-67
2021/06/06 09:52:13;;;;;;;19.45;10.82;;;;;;;15.72;49.41;102219.97;5011401;28;20285;-67
2021/06/06 09:54:45;;;;;;;21.00;12.95;;;;;;;15.87;50.06;102225.56;5008020;28;20509;-67
2021/06/06 09:57:21;;;;;;;15.02;10.93;;;;;;;16.02;48.85;102234.63;5009092;28;20055;-67
2021/06/06 09:59:47;;;;;;;17.00;10.77;;;;;;;16.34;48.68;102226.22;5007260;28;20067;-67
2021/06/06 10:02:12;;;;;;;21.23;10.52;;;;;;;16.26;48.78;102230.09;5010256;28;20255;-67
2021/06/06 10:04:44;;;;;;;17.17;11.57;;;;;;;15.99;49.09;102233.81;5011634;28;20562;-66
2021/06/06 10:07:34;;;;;;;18.65;10.95;;;;;;;15.50;50.45;102233.13;5009132;28;20336;-66
2021/06/06 10:10:06;;;;;;;20.83;11.95;;;;;;;15.04;51.15;102232.25;5010316;28;20049;-67
2021/06/06 10:12:43;;;;;;;20.80;11.73;;;;;;;15.39;50.34;102232.72;5023724;28;20037;-67
2021/06/06 10:15:16;;;;;;;19.88;12.23;;;;;;;15.65;49.62;102236.09;5007228;28;20513;-67
2021/06/06 10:17:46;;;;;;;14.05;11.15;;;;;;;15.64;49.66;102235.25;5023904;28;20034;-66
2021/06/06 10:20:37;;;;;;;18.55;11.90;;;;;;;15.95;49.21;102242.78;5009290;28;20107;-66
2021/06/06 10:23:10;;;;;;;16.15;11.82;;;;;;;16.18;48.65;102238.34;5007072;28;20029;-66
2021/06/06 10:25:57;;;;;;;14.77;10.60;;;;;;;15.67;49.06;102243.03;5010576;28;20042;-66
2021/06/06 10:28:30;;;;;;;17.23;10.32;;;;;;;15.70;49.39;102239.41;5007759;28;20068;-66
2021/06/06 10:31:05;;;;;;;15.32;10.32;;;;;;;15.79;49.16;102241.66;5008984;28;20029;-66
2021/06/06 10:33:34;;;;;;;16.88;10.80;;;;;;;16.17;48.65;102247.16;5009702;28;20029;-67
2021/06/06 10:36:00;;;;;;;14.85;9.38;;;;;;;15.25;50.24;102248.19;5008783;28;20037;-67
2021/06/06 10:38:27;;;;;;;18.80;11.55;;;;;;;15.68;49.53;102239.47;4975895;28;20030;-67
2021/06/06 10:41:13;;;;;;;12.90;10.45;;;;;;;16.11;47.69;102237.75;5003262;28;20030;-67
2021/06/06 10:43:48;;;;;;;25.10;11.13;;;;;;;15.74;49.20;102254.19;5007530;28;20025;-67
2021/06/06 10:46:26;;;;;;;16.25;9.55;;;;;;;15.66;49.03;102250.97;5004731;28;20365;-66
2021/06/06 10:49:24;;;;;;;19.52;11.40;;;;;;;15.69;49.18;102242.97;5007591;28;20044;-68
2021/06/06 10:51:52;;;;;;;22.50;10.65;;;;;;;15.13;50.66;102246.84;5007577;28;20033;-67
2021/06/06 10:54:34;;;;;;;17.15;9.95;;;;;;;15.52;49.70;102251.53;5007562;28;20498;-67
2021/06/06 10:57:08;;;;;;;17.55;11.10;;;;;;;15.86;49.86;102253.69;5008401;28;20038;-67
2021/06/06 10:59:38;;;;;;;20.30;11.35;;;;;;;15.51;49.88;102257.75;5008791;28;20414;-67
2021/06/06 11:02:08;;;;;;;20.70;12.10;;;;;;;15.88;49.01;102257.09;5006093;28;20482;-67
2021/06/06 11:04:48;;;;;;;20.20;12.02;;;;;;;15.85;49.31;102253.75;5005628;28;20101;-66
2021/06/06 11:07:16;;;;;;;17.58;11.48;;;;;;;15.38;49.77;102249.44;5008795;28;20036;-67
2021/06/06 11:09:42;;;;;;;18.95;11.77;;;;;;;15.63;49.70;102251.97;5010237;28;20038;-67
2021/06/06 11:12:14;;;;;;;15.73;11.82;;;;;;;16.07;48.29;102246.72;5006973;28;20268;-66
2021/06/06 11:14:47;;;;;;;17.08;11.15;;;;;;;15.82;48.91;102257.38;5008795;28;20045;-67
2021/06/06 11:17:31;;;;;;;19.52;11.40;;;;;;;16.16;48.73;102256.88;5011223;28;20486;-67
2021/06/06 11:20:16;;;;;;;15.30;11.25;;;;;;;15.93;48.73;102247.25;4993335;28;20041;-68
2021/06/06 11:22:47;;;;;;;17.27;9.95;;;;;;;15.98;48.58;102252.34;5024371;28;20048;-67
2021/06/06 11:25:37;;;;;;;13.68;10.38;;;;;;;16.38;47.86;102251.56;5009055;28;20029;-66
2021/06/06 11:28:22;;;;;;;18.73;10.50;;;;;;;16.39;48.10;102247.97;5005138;28;20071;-67